Huvudsida
METAR-TAF:

METAR-TAF

Flygplatser :

Åbo flygplats

Åbo, Finland

latitud: 60-31N, longitud: 022-16E, höjd: 49 m

Aktuellt väderrapport

Denna rapport gjordes för 38 minuter sedan, klockan 14:20 UTC
Vind 9 kt från sydväst, varierande mellan syd och väst
Temperatur 18°C
Fuktighet 34%
Tryck 1027 hPa
Sikt 10 km eller mer
Inga moln under 1 500 m eller inga cumulonimbus

METAR: EFTU 231420Z AUTO 22009KT 190V260 CAVOK 18/02 Q1027

Tid: 17:58 (14:58 UTC)

Väderprognos

Denna rapport gjordes för 29 minuter sedan, klockan 14:29 UTC
Prognos gäller från 23 kl. 15 UTC till 24 kl. 15 UTC
Vind 9 kt från sydväst
Sikt 10 km eller mer
Inga moln under 1 500 m eller inga cumulonimbus

TAF: EFTU 231429Z 2315/2415 22009KT CAVOK

Aktuella väderrapporter och prognoser från 4000 flygplatser (METAR- och TAF-rapporter).

De tillgängliga stationerna syns som gula och röda prickar på kartan.

För musen över prickarna för att se namnen på stationerna.

Klicka sedan för att få väderrapporter och prognoser.

För att ändra kartan: Klicka på de gröna knapparna med ett svart kors på för att zooma in; den gröna knappen med ett streck på för att zooma ut; eller på de gröna pilarna för angränsande kartor.


METAR-TAF: